createdAt,value
2018-08-12T00:02:26.443Z,13.20
2018-08-12T00:04:56.713Z,13.00
2018-08-12T00:07:25.734Z,12.80
2018-08-12T00:14:50.002Z,13.10
2018-08-12T00:17:18.210Z,13.10
2018-08-12T00:19:46.413Z,13.10
2018-08-12T00:24:43.113Z,13.00
2018-08-12T00:27:11.309Z,12.80
2018-08-12T00:34:35.509Z,12.70
2018-08-12T00:37:04.083Z,12.70
2018-08-12T00:39:32.918Z,12.80
2018-08-12T00:46:57.617Z,12.60
2018-08-12T00:49:25.901Z,12.70
2018-08-12T00:51:54.152Z,12.80
2018-08-12T00:54:22.438Z,12.70
2018-08-12T00:56:50.675Z,12.80
2018-08-12T00:59:18.871Z,12.60
2018-08-12T01:01:47.179Z,12.50
2018-08-12T01:04:15.486Z,12.40
2018-08-12T01:09:13.063Z,12.40
2018-08-12T01:11:41.328Z,12.50
2018-08-12T01:14:09.585Z,12.40
2018-08-12T01:16:37.868Z,12.20
2018-08-12T01:19:06.149Z,12.00
2018-08-12T01:21:34.539Z,12.00
2018-08-12T01:24:03.061Z,12.00
2018-08-12T01:26:31.397Z,12.10
2018-08-12T01:28:59.713Z,12.30
2018-08-12T01:31:27.920Z,12.10
2018-08-12T01:33:56.069Z,12.00
2018-08-12T01:36:24.230Z,12.00
2018-08-12T01:38:52.378Z,11.90
2018-08-12T01:41:20.537Z,11.90
2018-08-12T01:43:48.676Z,11.90
2018-08-12T01:46:16.820Z,12.00
2018-08-12T01:48:44.969Z,12.00
2018-08-12T01:51:13.153Z,12.10
2018-08-12T01:53:41.301Z,12.10
2018-08-12T01:56:09.441Z,12.00
2018-08-12T02:01:05.538Z,11.80
2018-08-12T02:03:33.692Z,11.80
2018-08-12T02:10:57.740Z,11.40
2018-08-12T02:13:25.909Z,11.50
2018-08-12T02:15:54.068Z,11.50
2018-08-12T02:18:22.239Z,11.50
2018-08-12T02:20:50.387Z,11.40
2018-08-12T02:23:18.540Z,11.40
2018-08-12T02:25:46.681Z,11.40
2018-08-12T02:28:14.832Z,11.30
2018-08-12T02:30:42.985Z,11.20
2018-08-12T02:35:39.060Z,11.50
2018-08-12T02:38:07.232Z,11.30
2018-08-12T02:40:35.384Z,11.20
2018-08-12T02:43:03.561Z,11.20
2018-08-12T02:45:31.700Z,11.50
2018-08-12T02:47:59.860Z,11.20
2018-08-12T02:50:28.019Z,11.50
2018-08-12T02:52:56.179Z,11.30
2018-08-12T02:55:24.331Z,11.40
2018-08-12T03:00:20.434Z,11.20
2018-08-12T03:02:48.565Z,11.30
2018-08-12T03:05:16.720Z,11.20
2018-08-12T03:07:44.879Z,11.30
2018-08-12T03:12:41.157Z,11.30
2018-08-12T03:15:10.377Z,11.30
2018-08-12T03:17:38.757Z,11.30
2018-08-12T03:20:08.469Z,11.30
2018-08-12T03:22:36.941Z,11.30
2018-08-12T03:25:06.009Z,11.40
2018-08-12T03:27:34.370Z,11.40
2018-08-12T03:30:02.856Z,11.40
2018-08-12T03:32:30.948Z,11.30
2018-08-12T03:34:59.203Z,11.30
2018-08-12T03:37:27.410Z,10.90
2018-08-12T03:39:55.645Z,11.20
2018-08-12T03:44:51.895Z,11.20
2018-08-12T03:47:20.202Z,11.30
2018-08-12T03:52:16.441Z,11.30
2018-08-12T03:54:44.816Z,11.30
2018-08-12T03:57:13.076Z,11.50
2018-08-12T03:59:41.445Z,11.20
2018-08-12T04:02:09.674Z,11.50
2018-08-12T04:04:37.843Z,11.40
2018-08-12T04:07:06.023Z,11.40
2018-08-12T04:09:34.168Z,11.80
2018-08-12T04:12:02.322Z,11.50
2018-08-12T04:14:30.480Z,11.30
2018-08-12T04:21:56.488Z,11.20
2018-08-12T04:24:25.069Z,11.20
2018-08-12T04:29:21.141Z,11.30
2018-08-12T04:31:49.328Z,11.40
2018-08-12T04:34:17.546Z,11.40
2018-08-12T04:39:14.218Z,11.30
2018-08-12T04:41:43.527Z,11.30
2018-08-12T04:44:11.998Z,11.30
2018-08-12T04:49:09.037Z,11.40
2018-08-12T04:51:37.347Z,11.60
2018-08-12T04:54:05.652Z,11.50
2018-08-12T04:59:01.747Z,11.60
2018-08-12T05:01:29.895Z,11.70
2018-08-12T05:03:58.057Z,11.70
2018-08-12T05:08:54.137Z,11.90
2018-08-12T05:11:22.334Z,11.90
2018-08-12T05:18:46.385Z,12.00
2018-08-12T05:23:42.456Z,12.10
2018-08-12T05:28:38.576Z,12.20
2018-08-12T05:33:34.650Z,12.70
2018-08-12T05:38:30.739Z,12.60
2018-08-12T05:43:26.808Z,15.40
2018-08-12T05:45:54.973Z,16.60
2018-08-12T05:50:51.046Z,18.30
2018-08-12T05:58:15.037Z,20.20
2018-08-12T06:00:43.276Z,20.50
2018-08-12T06:03:11.585Z,20.40
2018-08-12T06:05:39.758Z,20.90
2018-08-12T06:08:08.002Z,21.40
2018-08-12T06:10:36.153Z,20.90
2018-08-12T06:15:32.320Z,21.80
2018-08-12T06:18:00.576Z,22.30
2018-08-12T06:22:56.645Z,23.70
2018-08-12T06:25:24.780Z,23.70
2018-08-12T06:37:44.701Z,24.60
2018-08-12T06:42:44.016Z,24.00
2018-08-12T06:45:13.609Z,24.10
2018-08-12T06:47:41.973Z,24.30
2018-08-12T06:50:10.683Z,24.50
2018-08-12T06:52:39.772Z,23.90
2018-08-12T06:55:09.253Z,25.00
2018-08-12T06:57:37.448Z,25.20
2018-08-12T07:00:07.541Z,24.70
2018-08-12T07:02:35.718Z,25.70
2018-08-12T07:05:04.522Z,25.70
2018-08-12T07:07:32.685Z,25.30
2018-08-12T07:10:00.858Z,25.00
2018-08-12T07:14:57.746Z,24.70
2018-08-12T07:17:26.194Z,24.40
2018-08-12T07:24:51.133Z,24.30
2018-08-12T07:27:19.496Z,23.10
2018-08-12T07:32:15.634Z,24.40
2018-08-12T07:34:43.816Z,23.20
2018-08-12T07:37:11.990Z,23.60
2018-08-12T07:42:08.047Z,25.20
2018-08-12T07:47:04.157Z,24.40
2018-08-12T07:49:32.361Z,24.70
2018-08-12T07:52:00.557Z,25.00
2018-08-12T07:54:28.720Z,25.20
2018-08-12T08:01:52.888Z,24.80
2018-08-12T08:04:21.063Z,24.80
2018-08-12T08:06:49.237Z,25.20
2018-08-12T08:09:17.449Z,25.30
2018-08-12T08:14:13.553Z,24.80
2018-08-12T08:19:09.905Z,24.80
2018-08-12T08:21:38.073Z,25.20
2018-08-12T08:24:06.382Z,25.20
2018-08-12T08:26:35.237Z,25.20
2018-08-12T08:29:03.766Z,25.90
2018-08-12T08:31:32.388Z,25.90
2018-08-12T08:34:00.799Z,25.00
2018-08-12T08:36:29.210Z,25.20
2018-08-12T08:43:54.153Z,26.50
2018-08-12T08:48:50.721Z,27.40
2018-08-12T08:51:19.254Z,28.20
2018-08-12T08:56:15.882Z,29.10
2018-08-12T09:03:40.940Z,27.80
2018-08-12T09:06:09.504Z,27.60
2018-08-12T09:08:38.122Z,29.60
2018-08-12T09:11:06.488Z,30.30
2018-08-12T09:16:03.105Z,30.40
2018-08-12T09:18:31.949Z,31.10
2018-08-12T09:21:00.413Z,30.30
2018-08-12T09:25:57.090Z,30.90
2018-08-12T09:30:53.764Z,30.30
2018-08-12T09:33:22.238Z,30.30
2018-08-12T09:35:50.770Z,28.10
2018-08-12T09:38:19.295Z,30.60
2018-08-12T09:40:47.793Z,29.10
2018-08-12T09:45:44.553Z,30.10
2018-08-12T09:48:13.066Z,31.20
2018-08-12T09:50:41.797Z,30.80
2018-08-12T09:53:10.297Z,31.50
2018-08-12T09:55:38.821Z,28.70
2018-08-12T09:58:07.345Z,30.30
2018-08-12T10:00:39.116Z,32.40
2018-08-12T10:03:08.293Z,32.20
2018-08-12T10:08:04.957Z,31.10
2018-08-12T10:10:33.397Z,31.40
2018-08-12T10:13:01.904Z,30.30
2018-08-12T10:18:00.370Z,30.80
2018-08-12T10:20:28.861Z,30.20
2018-08-12T10:22:57.397Z,29.80
2018-08-12T10:25:25.916Z,31.30
2018-08-12T10:27:54.404Z,30.80
2018-08-12T10:30:22.946Z,31.30
2018-08-12T10:32:51.476Z,32.40
2018-08-12T10:37:48.147Z,30.10
2018-08-12T10:40:18.117Z,31.80
2018-08-12T10:45:15.617Z,31.00
2018-08-12T10:47:44.358Z,31.00
2018-08-12T10:50:15.048Z,29.20
2018-08-12T10:52:44.473Z,30.30
2018-08-12T10:55:13.964Z,32.10
2018-08-12T10:57:42.594Z,30.20
2018-08-12T11:00:15.772Z,31.30
2018-08-12T11:05:13.612Z,29.40
2018-08-12T11:07:42.064Z,30.30
2018-08-12T11:10:11.473Z,31.40
2018-08-12T11:17:40.533Z,31.60
2018-08-12T11:20:09.280Z,31.50
2018-08-12T11:22:41.426Z,29.20
2018-08-12T11:25:11.149Z,30.20
2018-08-12T11:32:45.901Z,30.30
2018-08-12T11:35:15.947Z,31.30
2018-08-12T11:37:44.510Z,31.30
2018-08-12T11:40:13.665Z,32.40
2018-08-12T11:42:41.968Z,32.50
2018-08-12T11:55:09.496Z,31.80
2018-08-12T11:57:37.716Z,30.40
2018-08-12T12:00:08.480Z,33.00
2018-08-12T12:02:36.669Z,32.80
2018-08-12T12:05:06.565Z,32.90
2018-08-12T12:07:34.880Z,33.00
2018-08-12T12:10:03.054Z,33.30
2018-08-12T12:12:31.213Z,33.70
2018-08-12T12:14:59.417Z,33.60
2018-08-12T12:22:24.241Z,32.90
2018-08-12T12:24:52.701Z,31.80
2018-08-12T12:27:20.882Z,32.20
2018-08-12T12:29:49.109Z,33.20
2018-08-12T12:32:17.285Z,31.90
2018-08-12T12:34:45.453Z,31.70
2018-08-12T12:37:13.632Z,33.10
2018-08-12T12:39:41.817Z,32.90
2018-08-12T12:42:09.973Z,32.90
2018-08-12T12:44:38.152Z,31.90
2018-08-12T12:47:06.384Z,31.80
2018-08-12T12:49:34.632Z,30.30
2018-08-12T12:52:02.722Z,30.20
2018-08-12T12:54:30.902Z,31.40
2018-08-12T12:56:59.078Z,32.50
2018-08-12T12:59:27.266Z,33.20
2018-08-12T13:01:56.393Z,32.50
2018-08-12T13:09:20.408Z,30.90
2018-08-12T13:11:48.597Z,32.10
2018-08-12T13:14:16.838Z,31.50
2018-08-12T13:16:45.008Z,31.20
2018-08-12T13:19:13.223Z,30.30
2018-08-12T13:21:41.358Z,30.90
2018-08-12T13:24:09.521Z,32.20
2018-08-12T13:26:37.694Z,32.10
2018-08-12T13:29:05.892Z,31.00
2018-08-12T13:31:34.102Z,32.20
2018-08-12T13:36:36.341Z,32.30
2018-08-12T13:39:08.068Z,32.90
2018-08-12T13:44:04.345Z,32.90
2018-08-12T13:46:32.522Z,32.70
2018-08-12T13:49:00.700Z,31.70
2018-08-12T13:51:28.897Z,32.20
2018-08-12T13:53:57.695Z,32.20
2018-08-12T13:56:25.904Z,31.30
2018-08-12T14:01:22.622Z,31.70
2018-08-12T14:06:25.579Z,31.70
2018-08-12T14:13:56.423Z,30.70
2018-08-12T14:16:24.530Z,31.60
2018-08-12T14:18:52.701Z,30.90
2018-08-12T14:21:20.882Z,31.50
2018-08-12T14:23:49.471Z,31.70
2018-08-12T14:28:59.629Z,31.60
2018-08-12T14:33:55.901Z,31.40
2018-08-12T14:36:24.078Z,30.80
2018-08-12T14:38:52.218Z,31.10
2018-08-12T14:41:21.253Z,31.40
2018-08-12T14:46:17.334Z,30.10
2018-08-12T14:48:47.081Z,30.20
2018-08-12T14:51:15.335Z,30.30
2018-08-12T14:53:43.513Z,30.60
2018-08-12T14:58:39.600Z,30.20
2018-08-12T15:03:35.697Z,30.30
2018-08-12T15:06:03.896Z,30.60
2018-08-12T15:08:32.056Z,30.30
2018-08-12T15:11:00.223Z,30.50
2018-08-12T15:13:28.378Z,30.60
2018-08-12T15:23:20.364Z,30.60
2018-08-12T15:28:16.490Z,30.60
2018-08-12T15:30:44.647Z,30.50
2018-08-12T15:33:12.849Z,30.60
2018-08-12T15:35:40.997Z,30.30
2018-08-12T15:38:09.194Z,30.40
2018-08-12T15:40:37.348Z,30.30
2018-08-12T15:43:05.533Z,30.40
2018-08-12T15:48:02.558Z,30.40
2018-08-12T15:50:30.773Z,30.00
2018-08-12T15:52:58.950Z,30.10
2018-08-12T15:57:55.068Z,30.40
2018-08-12T16:05:19.574Z,30.40
2018-08-12T16:07:48.424Z,30.20
2018-08-12T16:10:19.781Z,30.30
2018-08-12T16:12:49.177Z,30.30
2018-08-12T16:15:18.670Z,30.20
2018-08-12T16:22:42.833Z,30.00
2018-08-12T16:25:13.536Z,29.80
2018-08-12T16:27:42.104Z,29.80
2018-08-12T16:30:11.240Z,29.80
2018-08-12T16:32:39.450Z,29.80
2018-08-12T16:35:09.459Z,29.80
2018-08-12T16:37:48.208Z,29.80
2018-08-12T16:40:18.854Z,29.90
2018-08-12T16:42:47.349Z,29.90
2018-08-12T16:45:16.125Z,29.90
2018-08-12T16:47:45.121Z,29.70
2018-08-12T16:50:13.648Z,29.80
2018-08-12T16:52:42.085Z,29.80
2018-08-12T16:55:13.100Z,29.70
2018-08-12T17:00:14.497Z,29.60
2018-08-12T17:02:42.971Z,29.60
2018-08-12T17:05:13.838Z,29.70
2018-08-12T17:07:42.758Z,29.50
2018-08-12T17:10:12.181Z,29.50
2018-08-12T17:12:40.478Z,29.30
2018-08-12T17:15:14.993Z,29.50
2018-08-12T17:17:45.877Z,29.50
2018-08-12T17:20:16.117Z,29.60
2018-08-12T17:22:45.274Z,29.50
2018-08-12T17:30:11.737Z,29.30
2018-08-12T17:32:39.994Z,29.40
2018-08-12T17:35:08.654Z,29.30
2018-08-12T17:37:37.090Z,29.20
2018-08-12T17:45:09.527Z,29.00
2018-08-12T17:47:37.913Z,28.90
2018-08-12T17:50:06.626Z,28.90
2018-08-12T17:52:34.793Z,28.70
2018-08-12T17:55:02.969Z,28.70
2018-08-12T17:59:59.284Z,28.70
2018-08-12T18:02:38.376Z,28.60
2018-08-12T18:05:07.322Z,28.50
2018-08-12T18:10:04.061Z,28.40
2018-08-12T18:12:32.553Z,28.20
2018-08-12T18:15:01.048Z,28.00
2018-08-12T18:17:29.544Z,28.00
2018-08-12T18:22:26.388Z,27.80
2018-08-12T18:27:23.062Z,27.10
2018-08-12T18:32:20.011Z,26.70
2018-08-12T18:34:49.426Z,26.50
2018-08-12T18:37:18.022Z,26.40
2018-08-12T18:39:49.847Z,26.20
2018-08-12T18:49:44.525Z,25.70
2018-08-12T18:52:13.226Z,25.50
2018-08-12T18:54:41.708Z,25.30
2018-08-12T18:57:09.930Z,25.10
2018-08-12T18:59:38.203Z,24.90
2018-08-12T19:04:34.312Z,24.70
2018-08-12T19:07:02.530Z,24.60
2018-08-12T19:14:26.709Z,24.60
2018-08-12T19:16:55.660Z,24.30
2018-08-12T19:19:23.874Z,24.10
2018-08-12T19:22:02.665Z,23.80
2018-08-12T19:24:31.097Z,23.60
2018-08-12T19:26:59.380Z,23.40
2018-08-12T19:29:27.692Z,23.10
2018-08-12T19:34:24.035Z,22.80
2018-08-12T19:41:50.253Z,22.30
2018-08-12T19:44:18.713Z,22.20
2018-08-12T19:51:43.589Z,21.80
2018-08-12T19:54:11.927Z,21.70
2018-08-12T19:56:40.228Z,21.60
2018-08-12T20:01:36.455Z,21.60
2018-08-12T20:04:04.899Z,21.40
2018-08-12T20:11:37.715Z,20.70
2018-08-12T20:21:35.254Z,20.50
2018-08-12T20:26:34.151Z,20.40
2018-08-12T20:29:02.589Z,20.40
2018-08-12T20:31:30.934Z,20.40
2018-08-12T20:36:29.287Z,20.30
2018-08-12T20:38:58.808Z,20.20
2018-08-12T20:41:27.464Z,20.10
2018-08-12T20:53:50.213Z,19.90
2018-08-12T20:58:47.104Z,19.70
2018-08-12T21:06:12.371Z,19.50
2018-08-12T21:11:09.443Z,19.30
2018-08-12T21:13:38.080Z,19.30
2018-08-12T21:16:07.034Z,19.20
2018-08-12T21:21:03.889Z,19.10
2018-08-12T21:26:00.720Z,18.90
2018-08-12T21:28:29.236Z,19.00
2018-08-12T21:31:01.954Z,19.00
2018-08-12T21:35:59.453Z,18.90
2018-08-12T21:38:27.881Z,18.80
2018-08-12T21:45:53.026Z,18.70
2018-08-12T21:48:21.214Z,18.60
2018-08-12T21:58:13.307Z,18.60
2018-08-12T22:00:41.507Z,18.60
2018-08-12T22:13:06.260Z,18.50
2018-08-12T22:15:34.456Z,18.40
2018-08-12T22:18:02.657Z,18.30
2018-08-12T22:20:30.933Z,18.30
2018-08-12T22:22:59.098Z,18.20
2018-08-12T22:25:27.350Z,18.10
2018-08-12T22:27:55.577Z,18.10
2018-08-12T22:30:23.761Z,18.20
2018-08-12T22:32:51.968Z,18.10
2018-08-12T22:37:48.055Z,18.20
2018-08-12T22:40:16.201Z,18.20
2018-08-12T22:42:44.365Z,17.80
2018-08-12T22:45:12.540Z,17.90
2018-08-12T22:50:11.226Z,17.80
2018-08-12T22:52:39.373Z,17.70
2018-08-12T22:55:08.139Z,17.60
2018-08-12T22:57:37.308Z,17.70
2018-08-12T23:05:04.277Z,17.40
2018-08-12T23:12:29.708Z,17.40
2018-08-12T23:15:09.566Z,17.40
2018-08-12T23:17:37.751Z,17.40
2018-08-12T23:20:05.896Z,17.50
2018-08-12T23:22:34.191Z,17.60
2018-08-12T23:25:02.434Z,17.60
2018-08-12T23:29:58.522Z,17.50
2018-08-12T23:32:26.688Z,17.40
2018-08-12T23:34:54.852Z,17.30
2018-08-12T23:37:23.065Z,17.20
2018-08-12T23:39:51.217Z,17.10
2018-08-12T23:42:19.388Z,17.10
2018-08-12T23:47:15.504Z,17.10
2018-08-12T23:49:43.673Z,17.10
2018-08-12T23:52:11.974Z,17.00
2018-08-12T23:54:40.204Z,17.00
2018-08-12T23:57:08.388Z,17.00
2018-08-12T23:59:36.524Z,16.90
